sensor_id;sensor_type;location;lat;lon;timestamp;P1;durP1;ratioP1;P2;durP2;ratioP2
57297;SDS011;43147;50.972;18.210;2023-11-19T00:00:42;83.10;;;27.20;;
57297;SDS011;43147;50.972;18.210;2023-11-19T00:03:07;83.50;;;28.70;;
57297;SDS011;43147;50.972;18.210;2023-11-19T00:05:33;85.00;;;28.50;;
57297;SDS011;43147;50.972;18.210;2023-11-19T00:07:59;68.90;;;26.50;;
57297;SDS011;43147;50.972;18.210;2023-11-19T00:10:24;67.80;;;24.80;;
57297;SDS011;43147;50.972;18.210;2023-11-19T00:12:50;59.10;;;24.50;;
57297;SDS011;43147;50.972;18.210;2023-11-19T00:15:16;72.00;;;23.80;;
57297;SDS011;43147;50.972;18.210;2023-11-19T00:17:44;71.80;;;24.60;;
57297;SDS011;43147;50.972;18.210;2023-11-19T00:20:14;89.10;;;27.20;;
57297;SDS011;43147;50.972;18.210;2023-11-19T00:22:42;80.20;;;26.40;;
57297;SDS011;43147;50.972;18.210;2023-11-19T00:25:08;77.00;;;26.90;;
57297;SDS011;43147;50.972;18.210;2023-11-19T00:27:35;88.70;;;27.20;;
57297;SDS011;43147;50.972;18.210;2023-11-19T00:30:01;84.60;;;29.20;;
57297;SDS011;43147;50.972;18.210;2023-11-19T00:32:27;74.50;;;30.40;;
57297;SDS011;43147;50.972;18.210;2023-11-19T00:34:52;91.80;;;30.70;;
57297;SDS011;43147;50.972;18.210;2023-11-19T00:37:18;102.30;;;30.20;;
57297;SDS011;43147;50.972;18.210;2023-11-19T00:39:43;98.50;;;31.20;;
57297;SDS011;43147;50.972;18.210;2023-11-19T00:42:09;102.40;;;31.40;;
57297;SDS011;43147;50.972;18.210;2023-11-19T00:44:39;94.70;;;32.10;;
57297;SDS011;43147;50.972;18.210;2023-11-19T00:47:04;92.20;;;34.70;;
57297;SDS011;43147;50.972;18.210;2023-11-19T00:49:30;95.10;;;32.60;;
57297;SDS011;43147;50.972;18.210;2023-11-19T00:51:58;75.50;;;28.70;;
57297;SDS011;43147;50.972;18.210;2023-11-19T00:54:24;78.30;;;24.80;;
57297;SDS011;43147;50.972;18.210;2023-11-19T00:56:54;94.60;;;32.60;;
57297;SDS011;43147;50.972;18.210;2023-11-19T00:59:20;89.20;;;30.00;;
57297;SDS011;43147;50.972;18.210;2023-11-19T01:01:46;109.70;;;33.30;;
57297;SDS011;43147;50.972;18.210;2023-11-19T01:04:16;95.90;;;32.90;;
57297;SDS011;43147;50.972;18.210;2023-11-19T01:06:42;112.90;;;33.00;;
57297;SDS011;43147;50.972;18.210;2023-11-19T01:09:08;120.10;;;34.20;;
57297;SDS011;43147;50.972;18.210;2023-11-19T01:11:34;95.30;;;30.00;;
57297;SDS011;43147;50.972;18.210;2023-11-19T01:14:00;79.40;;;25.90;;
57297;SDS011;43147;50.972;18.210;2023-11-19T01:16:26;106.40;;;32.30;;
57297;SDS011;43147;50.972;18.210;2023-11-19T01:18:51;116.40;;;31.30;;
57297;SDS011;43147;50.972;18.210;2023-11-19T01:21:17;114.30;;;31.10;;
57297;SDS011;43147;50.972;18.210;2023-11-19T01:23:43;87.90;;;27.90;;
57297;SDS011;43147;50.972;18.210;2023-11-19T01:26:11;111.10;;;28.50;;
57297;SDS011;43147;50.972;18.210;2023-11-19T01:28:38;106.90;;;31.80;;
57297;SDS011;43147;50.972;18.210;2023-11-19T01:31:10;74.80;;;25.20;;
57297;SDS011;43147;50.972;18.210;2023-11-19T01:33:36;79.80;;;23.10;;
57297;SDS011;43147;50.972;18.210;2023-11-19T01:36:03;76.80;;;25.00;;
57297;SDS011;43147;50.972;18.210;2023-11-19T01:38:29;76.90;;;24.10;;
57297;SDS011;43147;50.972;18.210;2023-11-19T01:40:56;61.00;;;22.90;;
57297;SDS011;43147;50.972;18.210;2023-11-19T01:43:44;85.80;;;27.60;;
57297;SDS011;43147;50.972;18.210;2023-11-19T01:46:12;65.60;;;21.80;;
57297;SDS011;43147;50.972;18.210;2023-11-19T01:48:41;75.10;;;25.10;;
57297;SDS011;43147;50.972;18.210;2023-11-19T01:51:08;76.50;;;21.40;;
57297;SDS011;43147;50.972;18.210;2023-11-19T01:53:35;84.30;;;23.50;;
57297;SDS011;43147;50.972;18.210;2023-11-19T01:56:03;89.70;;;26.30;;
57297;SDS011;43147;50.972;18.210;2023-11-19T01:58:30;99.80;;;27.40;;
57297;SDS011;43147;50.972;18.210;2023-11-19T02:00:56;105.00;;;25.80;;
57297;SDS011;43147;50.972;18.210;2023-11-19T02:03:22;96.40;;;26.10;;
57297;SDS011;43147;50.972;18.210;2023-11-19T02:05:48;113.60;;;28.70;;
57297;SDS011;43147;50.972;18.210;2023-11-19T02:08:16;117.40;;;31.20;;
57297;SDS011;43147;50.972;18.210;2023-11-19T02:10:42;83.10;;;23.80;;
57297;SDS011;43147;50.972;18.210;2023-11-19T02:13:08;90.30;;;26.00;;
57297;SDS011;43147;50.972;18.210;2023-11-19T02:15:35;96.50;;;27.30;;
57297;SDS011;43147;50.972;18.210;2023-11-19T02:20:49;110.30;;;26.40;;
57297;SDS011;43147;50.972;18.210;2023-11-19T02:23:15;76.80;;;22.40;;
57297;SDS011;43147;50.972;18.210;2023-11-19T02:25:41;109.80;;;28.00;;
57297;SDS011;43147;50.972;18.210;2023-11-19T02:28:09;119.40;;;29.50;;
57297;SDS011;43147;50.972;18.210;2023-11-19T02:30:37;58.90;;;15.00;;
57297;SDS011;43147;50.972;18.210;2023-11-19T02:33:03;57.40;;;19.70;;
57297;SDS011;43147;50.972;18.210;2023-11-19T02:35:31;78.80;;;23.20;;
57297;SDS011;43147;50.972;18.210;2023-11-19T02:37:57;85.50;;;23.90;;
57297;SDS011;43147;50.972;18.210;2023-11-19T02:40:24;84.90;;;23.70;;
57297;SDS011;43147;50.972;18.210;2023-11-19T02:42:50;89.60;;;24.80;;
57297;SDS011;43147;50.972;18.210;2023-11-19T02:45:16;121.90;;;28.10;;
57297;SDS011;43147;50.972;18.210;2023-11-19T02:47:42;133.90;;;31.50;;
57297;SDS011;43147;50.972;18.210;2023-11-19T02:50:12;53.70;;;19.50;;
57297;SDS011;43147;50.972;18.210;2023-11-19T02:52:41;103.60;;;29.00;;
57297;SDS011;43147;50.972;18.210;2023-11-19T02:55:08;87.30;;;24.80;;
57297;SDS011;43147;50.972;18.210;2023-11-19T02:57:40;134.40;;;30.00;;
57297;SDS011;43147;50.972;18.210;2023-11-19T03:00:14;88.70;;;24.80;;
57297;SDS011;43147;50.972;18.210;2023-11-19T03:02:41;103.00;;;25.50;;
57297;SDS011;43147;50.972;18.210;2023-11-19T03:05:12;125.30;;;29.10;;
57297;SDS011;43147;50.972;18.210;2023-11-19T03:07:43;77.80;;;23.30;;
57297;SDS011;43147;50.972;18.210;2023-11-19T03:10:09;93.60;;;24.10;;
57297;SDS011;43147;50.972;18.210;2023-11-19T03:12:43;114.30;;;26.30;;
57297;SDS011;43147;50.972;18.210;2023-11-19T03:15:09;98.70;;;24.50;;
57297;SDS011;43147;50.972;18.210;2023-11-19T03:17:38;104.60;;;28.50;;
57297;SDS011;43147;50.972;18.210;2023-11-19T03:20:05;112.60;;;26.00;;
57297;SDS011;43147;50.972;18.210;2023-11-19T03:22:36;119.90;;;26.80;;
57297;SDS011;43147;50.972;18.210;2023-11-19T03:25:02;97.70;;;26.60;;
57297;SDS011;43147;50.972;18.210;2023-11-19T03:27:28;114.50;;;25.60;;
57297;SDS011;43147;50.972;18.210;2023-11-19T03:29:53;138.40;;;31.00;;
57297;SDS011;43147;50.972;18.210;2023-11-19T03:32:19;117.80;;;26.50;;
57297;SDS011;43147;50.972;18.210;2023-11-19T03:34:45;81.50;;;22.80;;
57297;SDS011;43147;50.972;18.210;2023-11-19T03:37:10;106.50;;;28.20;;
57297;SDS011;43147;50.972;18.210;2023-11-19T03:39:36;86.30;;;26.20;;
57297;SDS011;43147;50.972;18.210;2023-11-19T03:42:02;85.70;;;25.80;;
57297;SDS011;43147;50.972;18.210;2023-11-19T03:44:31;99.10;;;27.00;;
57297;SDS011;43147;50.972;18.210;2023-11-19T03:46:56;90.70;;;26.50;;
57297;SDS011;43147;50.972;18.210;2023-11-19T03:49:21;138.10;;;33.10;;
57297;SDS011;43147;50.972;18.210;2023-11-19T03:51:49;89.50;;;24.20;;
57297;SDS011;43147;50.972;18.210;2023-11-19T03:54:17;95.00;;;24.40;;
57297;SDS011;43147;50.972;18.210;2023-11-19T03:56:42;93.90;;;24.40;;
57297;SDS011;43147;50.972;18.210;2023-11-19T03:59:07;103.30;;;26.70;;
57297;SDS011;43147;50.972;18.210;2023-11-19T04:01:35;101.70;;;27.70;;
57297;SDS011;43147;50.972;18.210;2023-11-19T04:04:02;151.70;;;33.00;;
57297;SDS011;43147;50.972;18.210;2023-11-19T04:06:28;119.40;;;32.40;;
57297;SDS011;43147;50.972;18.210;2023-11-19T04:08:53;132.00;;;29.70;;
57297;SDS011;43147;50.972;18.210;2023-11-19T04:11:19;110.10;;;29.50;;
57297;SDS011;43147;50.972;18.210;2023-11-19T04:13:44;107.00;;;25.80;;
57297;SDS011;43147;50.972;18.210;2023-11-19T04:16:09;92.20;;;26.30;;
57297;SDS011;43147;50.972;18.210;2023-11-19T04:18:35;104.20;;;29.00;;
57297;SDS011;43147;50.972;18.210;2023-11-19T04:21:01;100.50;;;28.10;;
57297;SDS011;43147;50.972;18.210;2023-11-19T04:23:26;84.00;;;27.50;;
57297;SDS011;43147;50.972;18.210;2023-11-19T04:25:52;96.20;;;26.90;;
57297;SDS011;43147;50.972;18.210;2023-11-19T04:28:17;98.70;;;24.80;;
57297;SDS011;43147;50.972;18.210;2023-11-19T04:30:43;115.80;;;29.60;;
57297;SDS011;43147;50.972;18.210;2023-11-19T04:33:09;115.30;;;30.40;;
57297;SDS011;43147;50.972;18.210;2023-11-19T04:35:35;94.00;;;26.80;;
57297;SDS011;43147;50.972;18.210;2023-11-19T04:38:01;79.20;;;28.10;;
57297;SDS011;43147;50.972;18.210;2023-11-19T04:40:26;84.40;;;26.90;;
57297;SDS011;43147;50.972;18.210;2023-11-19T04:42:52;80.70;;;27.00;;
57297;SDS011;43147;50.972;18.210;2023-11-19T04:45:17;84.90;;;26.70;;
57297;SDS011;43147;50.972;18.210;2023-11-19T04:47:43;84.90;;;27.80;;
57297;SDS011;43147;50.972;18.210;2023-11-19T04:50:08;76.40;;;27.00;;
57297;SDS011;43147;50.972;18.210;2023-11-19T04:52:38;76.70;;;27.00;;
57297;SDS011;43147;50.972;18.210;2023-11-19T04:55:07;66.90;;;23.80;;
57297;SDS011;43147;50.972;18.210;2023-11-19T04:57:33;77.30;;;26.20;;
57297;SDS011;43147;50.972;18.210;2023-11-19T04:59:58;88.70;;;30.70;;
57297;SDS011;43147;50.972;18.210;2023-11-19T05:02:24;64.60;;;24.00;;
57297;SDS011;43147;50.972;18.210;2023-11-19T05:04:50;74.60;;;26.70;;
57297;SDS011;43147;50.972;18.210;2023-11-19T05:07:15;65.50;;;21.90;;
57297;SDS011;43147;50.972;18.210;2023-11-19T05:09:41;48.40;;;17.80;;
57297;SDS011;43147;50.972;18.210;2023-11-19T05:12:08;58.30;;;23.40;;
57297;SDS011;43147;50.972;18.210;2023-11-19T05:14:37;37.50;;;18.20;;
57297;SDS011;43147;50.972;18.210;2023-11-19T05:17:03;62.20;;;25.40;;
57297;SDS011;43147;50.972;18.210;2023-11-19T05:19:29;58.60;;;23.30;;
57297;SDS011;43147;50.972;18.210;2023-11-19T05:21:54;65.40;;;25.60;;
57297;SDS011;43147;50.972;18.210;2023-11-19T05:24:20;64.20;;;22.40;;
57297;SDS011;43147;50.972;18.210;2023-11-19T05:26:45;70.30;;;28.20;;
57297;SDS011;43147;50.972;18.210;2023-11-19T05:29:12;51.50;;;21.90;;
57297;SDS011;43147;50.972;18.210;2023-11-19T05:31:38;59.60;;;23.50;;
57297;SDS011;43147;50.972;18.210;2023-11-19T05:34:03;65.90;;;24.10;;
57297;SDS011;43147;50.972;18.210;2023-11-19T05:36:29;69.60;;;25.70;;
57297;SDS011;43147;50.972;18.210;2023-11-19T05:38:55;64.60;;;23.80;;
57297;SDS011;43147;50.972;18.210;2023-11-19T05:41:20;59.40;;;24.50;;
57297;SDS011;43147;50.972;18.210;2023-11-19T05:43:46;72.40;;;26.10;;
57297;SDS011;43147;50.972;18.210;2023-11-19T05:46:11;66.80;;;21.60;;
57297;SDS011;43147;50.972;18.210;2023-11-19T05:48:38;52.90;;;20.70;;
57297;SDS011;43147;50.972;18.210;2023-11-19T05:51:04;62.70;;;22.80;;
57297;SDS011;43147;50.972;18.210;2023-11-19T05:53:31;66.60;;;24.10;;
57297;SDS011;43147;50.972;18.210;2023-11-19T05:55:57;58.00;;;23.30;;
57297;SDS011;43147;50.972;18.210;2023-11-19T05:58:26;51.80;;;22.90;;
57297;SDS011;43147;50.972;18.210;2023-11-19T06:00:57;60.60;;;22.10;;
57297;SDS011;43147;50.972;18.210;2023-11-19T06:03:23;57.10;;;22.30;;
57297;SDS011;43147;50.972;18.210;2023-11-19T06:05:49;71.70;;;27.20;;
57297;SDS011;43147;50.972;18.210;2023-11-19T06:08:14;55.50;;;23.00;;
57297;SDS011;43147;50.972;18.210;2023-11-19T06:10:40;40.00;;;18.30;;
57297;SDS011;43147;50.972;18.210;2023-11-19T06:13:06;59.70;;;23.70;;
57297;SDS011;43147;50.972;18.210;2023-11-19T06:15:32;57.20;;;23.20;;
57297;SDS011;43147;50.972;18.210;2023-11-19T06:17:58;52.60;;;21.50;;
57297;SDS011;43147;50.972;18.210;2023-11-19T06:20:29;45.90;;;20.10;;
57297;SDS011;43147;50.972;18.210;2023-11-19T06:22:55;47.20;;;19.80;;
57297;SDS011;43147;50.972;18.210;2023-11-19T06:25:22;59.80;;;24.20;;
57297;SDS011;43147;50.972;18.210;2023-11-19T06:27:49;71.80;;;26.30;;
57297;SDS011;43147;50.972;18.210;2023-11-19T06:30:15;44.00;;;19.80;;
57297;SDS011;43147;50.972;18.210;2023-11-19T06:32:41;54.90;;;20.40;;
57297;SDS011;43147;50.972;18.210;2023-11-19T06:35:07;48.20;;;19.90;;
57297;SDS011;43147;50.972;18.210;2023-11-19T06:37:34;58.40;;;23.20;;
57297;SDS011;43147;50.972;18.210;2023-11-19T06:40:00;53.50;;;23.50;;
57297;SDS011;43147;50.972;18.210;2023-11-19T06:42:26;52.10;;;21.60;;
57297;SDS011;43147;50.972;18.210;2023-11-19T06:44:52;56.30;;;22.00;;
57297;SDS011;43147;50.972;18.210;2023-11-19T06:47:17;45.60;;;18.40;;
57297;SDS011;43147;50.972;18.210;2023-11-19T06:49:43;53.80;;;22.20;;
57297;SDS011;43147;50.972;18.210;2023-11-19T06:52:10;50.70;;;22.60;;
57297;SDS011;43147;50.972;18.210;2023-11-19T06:54:36;56.00;;;23.20;;
57297;SDS011;43147;50.972;18.210;2023-11-19T06:57:02;54.60;;;22.10;;
57297;SDS011;43147;50.972;18.210;2023-11-19T06:59:28;51.50;;;23.00;;
57297;SDS011;43147;50.972;18.210;2023-11-19T07:01:55;48.10;;;20.90;;
57297;SDS011;43147;50.972;18.210;2023-11-19T07:04:21;52.10;;;21.90;;
57297;SDS011;43147;50.972;18.210;2023-11-19T07:06:46;60.90;;;25.40;;
57297;SDS011;43147;50.972;18.210;2023-11-19T07:09:13;57.90;;;22.90;;
57297;SDS011;43147;50.972;18.210;2023-11-19T07:11:39;47.50;;;21.40;;
57297;SDS011;43147;50.972;18.210;2023-11-19T07:14:05;44.50;;;20.40;;
57297;SDS011;43147;50.972;18.210;2023-11-19T07:16:35;62.50;;;24.00;;
57297;SDS011;43147;50.972;18.210;2023-11-19T07:19:03;50.40;;;19.80;;
57297;SDS011;43147;50.972;18.210;2023-11-19T07:21:30;49.00;;;21.00;;
57297;SDS011;43147;50.972;18.210;2023-11-19T07:23:57;58.70;;;22.50;;
57297;SDS011;43147;50.972;18.210;2023-11-19T07:26:23;60.50;;;26.70;;
57297;SDS011;43147;50.972;18.210;2023-11-19T07:28:49;59.40;;;24.90;;
57297;SDS011;43147;50.972;18.210;2023-11-19T07:31:15;57.10;;;22.60;;
57297;SDS011;43147;50.972;18.210;2023-11-19T07:33:41;56.90;;;23.70;;
57297;SDS011;43147;50.972;18.210;2023-11-19T07:36:09;54.50;;;22.10;;
57297;SDS011;43147;50.972;18.210;2023-11-19T07:38:36;48.50;;;23.00;;
57297;SDS011;43147;50.972;18.210;2023-11-19T07:41:02;54.80;;;22.10;;
57297;SDS011;43147;50.972;18.210;2023-11-19T07:43:28;57.00;;;21.70;;
57297;SDS011;43147;50.972;18.210;2023-11-19T07:45:54;45.10;;;20.30;;
57297;SDS011;43147;50.972;18.210;2023-11-19T07:48:20;55.10;;;23.00;;
57297;SDS011;43147;50.972;18.210;2023-11-19T07:50:49;52.90;;;21.80;;
57297;SDS011;43147;50.972;18.210;2023-11-19T07:53:18;49.10;;;21.20;;
57297;SDS011;43147;50.972;18.210;2023-11-19T07:55:43;52.40;;;22.10;;
57297;SDS011;43147;50.972;18.210;2023-11-19T07:58:10;48.50;;;22.50;;
57297;SDS011;43147;50.972;18.210;2023-11-19T08:00:36;56.40;;;23.60;;
57297;SDS011;43147;50.972;18.210;2023-11-19T08:03:03;44.20;;;19.40;;
57297;SDS011;43147;50.972;18.210;2023-11-19T08:05:29;58.50;;;20.90;;
57297;SDS011;43147;50.972;18.210;2023-11-19T08:07:56;40.70;;;18.10;;
57297;SDS011;43147;50.972;18.210;2023-11-19T08:10:21;50.90;;;22.00;;
57297;SDS011;43147;50.972;18.210;2023-11-19T08:12:47;50.10;;;20.80;;
57297;SDS011;43147;50.972;18.210;2023-11-19T08:15:13;45.80;;;19.80;;
57297;SDS011;43147;50.972;18.210;2023-11-19T08:17:39;40.50;;;17.50;;
57297;SDS011;43147;50.972;18.210;2023-11-19T08:20:05;45.00;;;20.70;;
57297;SDS011;43147;50.972;18.210;2023-11-19T08:22:35;42.90;;;20.20;;
57297;SDS011;43147;50.972;18.210;2023-11-19T08:25:01;45.40;;;20.10;;
57297;SDS011;43147;50.972;18.210;2023-11-19T08:27:26;44.70;;;20.40;;
57297;SDS011;43147;50.972;18.210;2023-11-19T08:29:55;49.70;;;20.80;;
57297;SDS011;43147;50.972;18.210;2023-11-19T08:32:24;50.00;;;20.80;;
57297;SDS011;43147;50.972;18.210;2023-11-19T08:34:49;43.40;;;19.20;;
57297;SDS011;43147;50.972;18.210;2023-11-19T08:37:15;45.00;;;20.40;;
57297;SDS011;43147;50.972;18.210;2023-11-19T08:39:43;39.00;;;16.70;;
57297;SDS011;43147;50.972;18.210;2023-11-19T08:42:09;41.80;;;19.20;;
57297;SDS011;43147;50.972;18.210;2023-11-19T08:44:35;43.90;;;21.10;;
57297;SDS011;43147;50.972;18.210;2023-11-19T08:47:00;42.50;;;20.60;;
57297;SDS011;43147;50.972;18.210;2023-11-19T08:49:26;47.20;;;22.40;;
57297;SDS011;43147;50.972;18.210;2023-11-19T08:51:51;48.20;;;21.80;;
57297;SDS011;43147;50.972;18.210;2023-11-19T08:54:17;36.80;;;18.60;;
57297;SDS011;43147;50.972;18.210;2023-11-19T08:56:42;40.50;;;18.60;;
57297;SDS011;43147;50.972;18.210;2023-11-19T08:59:08;43.70;;;18.00;;
57297;SDS011;43147;50.972;18.210;2023-11-19T09:01:34;42.90;;;18.90;;
57297;SDS011;43147;50.972;18.210;2023-11-19T09:03:59;42.90;;;19.60;;
57297;SDS011;43147;50.972;18.210;2023-11-19T09:06:25;41.60;;;18.80;;
57297;SDS011;43147;50.972;18.210;2023-11-19T09:08:51;44.40;;;18.90;;
57297;SDS011;43147;50.972;18.210;2023-11-19T09:11:17;41.20;;;19.50;;
57297;SDS011;43147;50.972;18.210;2023-11-19T09:13:43;40.30;;;18.60;;
57297;SDS011;43147;50.972;18.210;2023-11-19T09:16:13;45.10;;;19.40;;
57297;SDS011;43147;50.972;18.210;2023-11-19T09:18:39;43.40;;;19.20;;
57297;SDS011;43147;50.972;18.210;2023-11-19T09:21:05;41.80;;;17.10;;
57297;SDS011;43147;50.972;18.210;2023-11-19T09:23:30;43.30;;;18.00;;
57297;SDS011;43147;50.972;18.210;2023-11-19T09:26:01;40.20;;;19.00;;
57297;SDS011;43147;50.972;18.210;2023-11-19T09:28:26;45.40;;;19.70;;
57297;SDS011;43147;50.972;18.210;2023-11-19T09:30:52;34.80;;;17.80;;
57297;SDS011;43147;50.972;18.210;2023-11-19T09:33:17;40.60;;;19.30;;
57297;SDS011;43147;50.972;18.210;2023-11-19T09:35:43;51.70;;;22.30;;
57297;SDS011;43147;50.972;18.210;2023-11-19T09:38:09;45.20;;;20.00;;
57297;SDS011;43147;50.972;18.210;2023-11-19T09:40:34;47.80;;;19.80;;
57297;SDS011;43147;50.972;18.210;2023-11-19T09:43:00;40.20;;;18.20;;
57297;SDS011;43147;50.972;18.210;2023-11-19T09:45:27;34.50;;;16.00;;
57297;SDS011;43147;50.972;18.210;2023-11-19T09:47:53;37.60;;;17.70;;
57297;SDS011;43147;50.972;18.210;2023-11-19T09:50:20;37.30;;;17.20;;
57297;SDS011;43147;50.972;18.210;2023-11-19T09:52:46;34.70;;;16.30;;
57297;SDS011;43147;50.972;18.210;2023-11-19T09:55:12;47.10;;;18.10;;
57297;SDS011;43147;50.972;18.210;2023-11-19T09:57:39;53.10;;;21.70;;
57297;SDS011;43147;50.972;18.210;2023-11-19T10:00:06;60.70;;;21.80;;
57297;SDS011;43147;50.972;18.210;2023-11-19T10:02:33;65.80;;;23.60;;
57297;SDS011;43147;50.972;18.210;2023-11-19T10:05:04;48.60;;;18.20;;
57297;SDS011;43147;50.972;18.210;2023-11-19T10:07:32;53.70;;;20.60;;
57297;SDS011;43147;50.972;18.210;2023-11-19T10:09:59;43.70;;;18.90;;
57297;SDS011;43147;50.972;18.210;2023-11-19T10:12:29;38.20;;;17.00;;
57297;SDS011;43147;50.972;18.210;2023-11-19T10:14:56;39.10;;;16.30;;
57297;SDS011;43147;50.972;18.210;2023-11-19T10:17:22;49.50;;;22.30;;
57297;SDS011;43147;50.972;18.210;2023-11-19T10:20:01;47.50;;;18.50;;
57297;SDS011;43147;50.972;18.210;2023-11-19T10:22:27;45.90;;;20.00;;
57297;SDS011;43147;50.972;18.210;2023-11-19T10:24:53;43.30;;;19.20;;
57297;SDS011;43147;50.972;18.210;2023-11-19T10:27:20;49.10;;;19.30;;
57297;SDS011;43147;50.972;18.210;2023-11-19T10:29:50;53.40;;;22.60;;
57297;SDS011;43147;50.972;18.210;2023-11-19T10:32:16;49.80;;;18.50;;
57297;SDS011;43147;50.972;18.210;2023-11-19T10:34:42;52.00;;;19.90;;
57297;SDS011;43147;50.972;18.210;2023-11-19T10:37:27;40.80;;;18.40;;
57297;SDS011;43147;50.972;18.210;2023-11-19T10:39:54;39.30;;;16.20;;
57297;SDS011;43147;50.972;18.210;2023-11-19T10:42:20;38.00;;;16.20;;
57297;SDS011;43147;50.972;18.210;2023-11-19T10:44:46;36.40;;;15.00;;
57297;SDS011;43147;50.972;18.210;2023-11-19T10:47:11;31.10;;;15.40;;
57297;SDS011;43147;50.972;18.210;2023-11-19T10:49:39;33.40;;;15.90;;
57297;SDS011;43147;50.972;18.210;2023-11-19T10:52:07;31.10;;;15.10;;
57297;SDS011;43147;50.972;18.210;2023-11-19T10:54:34;31.30;;;15.40;;
57297;SDS011;43147;50.972;18.210;2023-11-19T10:56:59;38.00;;;15.70;;
57297;SDS011;43147;50.972;18.210;2023-11-19T10:59:30;37.50;;;17.40;;
57297;SDS011;43147;50.972;18.210;2023-11-19T11:02:00;40.20;;;17.20;;
57297;SDS011;43147;50.972;18.210;2023-11-19T11:04:31;36.60;;;17.10;;
57297;SDS011;43147;50.972;18.210;2023-11-19T11:06:59;37.20;;;15.20;;
57297;SDS011;43147;50.972;18.210;2023-11-19T11:09:26;37.10;;;17.00;;
57297;SDS011;43147;50.972;18.210;2023-11-19T11:11:52;32.60;;;16.50;;
57297;SDS011;43147;50.972;18.210;2023-11-19T11:14:18;39.60;;;18.00;;
57297;SDS011;43147;50.972;18.210;2023-11-19T11:16:46;45.10;;;16.90;;
57297;SDS011;43147;50.972;18.210;2023-11-19T11:19:12;36.60;;;16.60;;
57297;SDS011;43147;50.972;18.210;2023-11-19T11:21:38;39.60;;;16.80;;
57297;SDS011;43147;50.972;18.210;2023-11-19T11:29:21;46.60;;;19.70;;
57297;SDS011;43147;50.972;18.210;2023-11-19T11:38:01;31.20;;;13.10;;
57297;SDS011;43147;50.972;18.210;2023-11-19T11:40:29;36.70;;;16.10;;
57297;SDS011;43147;50.972;18.210;2023-11-19T11:42:55;35.00;;;14.60;;
57297;SDS011;43147;50.972;18.210;2023-11-19T11:45:34;35.50;;;15.50;;
57297;SDS011;43147;50.972;18.210;2023-11-19T11:48:11;41.40;;;16.80;;
57297;SDS011;43147;50.972;18.210;2023-11-19T11:50:50;39.70;;;16.90;;
57297;SDS011;43147;50.972;18.210;2023-11-19T11:53:17;35.50;;;15.40;;
57297;SDS011;43147;50.972;18.210;2023-11-19T11:58:13;28.60;;;14.40;;
57297;SDS011;43147;50.972;18.210;2023-11-19T12:00:42;26.40;;;14.80;;
57297;SDS011;43147;50.972;18.210;2023-11-19T12:03:08;25.90;;;14.10;;
57297;SDS011;43147;50.972;18.210;2023-11-19T12:05:40;30.40;;;13.70;;
57297;SDS011;43147;50.972;18.210;2023-11-19T12:08:10;29.20;;;12.70;;
57297;SDS011;43147;50.972;18.210;2023-11-19T12:13:04;32.60;;;15.90;;
57297;SDS011;43147;50.972;18.210;2023-11-19T12:15:32;42.80;;;17.50;;
57297;SDS011;43147;50.972;18.210;2023-11-19T12:17:58;42.30;;;17.10;;
57297;SDS011;43147;50.972;18.210;2023-11-19T12:20:25;32.60;;;15.00;;
57297;SDS011;43147;50.972;18.210;2023-11-19T12:22:51;37.50;;;15.30;;
57297;SDS011;43147;50.972;18.210;2023-11-19T12:25:18;28.50;;;14.30;;
57297;SDS011;43147;50.972;18.210;2023-11-19T12:27:51;34.00;;;13.90;;
57297;SDS011;43147;50.972;18.210;2023-11-19T12:30:26;39.30;;;16.50;;
57297;SDS011;43147;50.972;18.210;2023-11-19T12:32:53;33.10;;;15.40;;
57297;SDS011;43147;50.972;18.210;2023-11-19T12:35:19;31.00;;;15.00;;
57297;SDS011;43147;50.972;18.210;2023-11-19T12:37:48;30.70;;;15.60;;
57297;SDS011;43147;50.972;18.210;2023-11-19T12:40:15;26.60;;;12.60;;
57297;SDS011;43147;50.972;18.210;2023-11-19T12:42:45;27.70;;;13.10;;
57297;SDS011;43147;50.972;18.210;2023-11-19T12:45:11;27.10;;;13.90;;
57297;SDS011;43147;50.972;18.210;2023-11-19T12:47:38;27.60;;;14.80;;
57297;SDS011;43147;50.972;18.210;2023-11-19T12:50:07;41.50;;;16.10;;
57297;SDS011;43147;50.972;18.210;2023-11-19T12:52:35;28.00;;;13.40;;
57297;SDS011;43147;50.972;18.210;2023-11-19T12:55:03;25.90;;;12.20;;
57297;SDS011;43147;50.972;18.210;2023-11-19T12:57:38;33.40;;;15.00;;
57297;SDS011;43147;50.972;18.210;2023-11-19T13:00:04;28.40;;;15.00;;
57297;SDS011;43147;50.972;18.210;2023-11-19T13:02:47;30.10;;;16.40;;
57297;SDS011;43147;50.972;18.210;2023-11-19T13:05:24;32.80;;;16.60;;
57297;SDS011;43147;50.972;18.210;2023-11-19T13:10:24;24.80;;;12.60;;
57297;SDS011;43147;50.972;18.210;2023-11-19T13:13:06;24.40;;;12.90;;
57297;SDS011;43147;50.972;18.210;2023-11-19T13:15:36;28.00;;;14.30;;
57297;SDS011;43147;50.972;18.210;2023-11-19T13:18:02;31.50;;;12.90;;
57297;SDS011;43147;50.972;18.210;2023-11-19T13:20:28;30.30;;;13.70;;
57297;SDS011;43147;50.972;18.210;2023-11-19T13:23:00;27.90;;;13.70;;
57297;SDS011;43147;50.972;18.210;2023-11-19T13:25:30;21.50;;;11.40;;
57297;SDS011;43147;50.972;18.210;2023-11-19T13:27:57;27.80;;;13.10;;
57297;SDS011;43147;50.972;18.210;2023-11-19T13:30:24;23.40;;;12.10;;
57297;SDS011;43147;50.972;18.210;2023-11-19T13:32:51;40.40;;;15.80;;
57297;SDS011;43147;50.972;18.210;2023-11-19T13:35:18;38.20;;;16.90;;
57297;SDS011;43147;50.972;18.210;2023-11-19T13:37:44;36.20;;;16.30;;
57297;SDS011;43147;50.972;18.210;2023-11-19T13:40:10;30.20;;;14.30;;
57297;SDS011;43147;50.972;18.210;2023-11-19T13:42:39;35.70;;;14.20;;
57297;SDS011;43147;50.972;18.210;2023-11-19T13:45:09;36.60;;;13.60;;
57297;SDS011;43147;50.972;18.210;2023-11-19T13:47:47;27.40;;;12.80;;
57297;SDS011;43147;50.972;18.210;2023-11-19T13:50:13;21.70;;;11.10;;
57297;SDS011;43147;50.972;18.210;2023-11-19T13:52:41;23.90;;;12.30;;
57297;SDS011;43147;50.972;18.210;2023-11-19T13:55:10;17.30;;;9.40;;
57297;SDS011;43147;50.972;18.210;2023-11-19T13:57:36;16.50;;;10.30;;
57297;SDS011;43147;50.972;18.210;2023-11-19T14:00:03;20.10;;;9.70;;
57297;SDS011;43147;50.972;18.210;2023-11-19T14:02:31;17.60;;;9.20;;
57297;SDS011;43147;50.972;18.210;2023-11-19T14:04:57;20.60;;;10.50;;
57297;SDS011;43147;50.972;18.210;2023-11-19T14:07:23;18.90;;;10.00;;
57297;SDS011;43147;50.972;18.210;2023-11-19T14:09:49;19.90;;;10.30;;
57297;SDS011;43147;50.972;18.210;2023-11-19T14:12:15;16.60;;;9.20;;
57297;SDS011;43147;50.972;18.210;2023-11-19T14:14:41;18.90;;;9.90;;
57297;SDS011;43147;50.972;18.210;2023-11-19T14:17:07;18.40;;;11.10;;
57297;SDS011;43147;50.972;18.210;2023-11-19T14:19:33;18.20;;;10.60;;
57297;SDS011;43147;50.972;18.210;2023-11-19T14:21:59;20.90;;;11.30;;
57297;SDS011;43147;50.972;18.210;2023-11-19T14:24:25;21.50;;;11.50;;
57297;SDS011;43147;50.972;18.210;2023-11-19T14:26:51;18.30;;;10.40;;
57297;SDS011;43147;50.972;18.210;2023-11-19T14:29:17;17.90;;;10.40;;